Bouton, Iowa
Current Conditions -  °F | °C
As of 6:15 PM on Monday 20 Oct 2014 (Local Time) from KPRO Reporting Station
Clear Clear  
Wind Chill: 64°   Ceiling: Unl
Heat Index: 64°   Visibility: 10mi
Dew Point: 39°   Wind: 5mph
Humidity: 40%   Direction: 300°WNW
Pressure: 30.02"   Gusts: NA
Location:  41.85°N, 94.01°W
Report Text: KPRO 202315Z AUTO 30004KT 10SM CLR 18/04 A3002 RMK AO2 T01770040
Loading
Personal Weather Stations






























Interactive Weather Map
Tropical Storm Tracking
New forecast layout! Learn more

10-Day Weather Forecast

Advertisements
Track Severe Weather on mobile